Time;durP1;ratioP1;P1;durP2;ratioP2;P2;SDS_P1;SDS_P2;PMS_P1;PMS_P2;Temp;Humidity;BMP_temperature;BMP_pressure;BME280_temperature;BME280_humidity;BME280_pressure;Samples;Min_cycle;Max_cycle;Signal;HPM_P1;HPM_P2
2021/01/04 00:00:39;;;;;;;0.00;0.00;;;2.60;99.90;;;;;;5008455;28;20048;-92
2021/01/04 00:03:29;;;;;;;0.17;0.17;;;2.60;99.90;;;;;;5008898;28;20044;-92
2021/01/04 00:06:07;;;;;;;;;;;2.60;99.90;;;;;;5008865;28;20070;-91
2021/01/04 00:08:45;;;;;;;0.00;0.00;;;2.60;99.90;;;;;;5008457;28;19913;-92
2021/01/04 00:11:35;;;;;;;0.00;0.00;;;2.70;99.90;;;;;;5008235;28;20042;-92
2021/01/04 00:14:16;;;;;;;0.00;0.00;;;2.70;99.90;;;;;;5008431;28;20074;-91
2021/01/04 00:16:59;;;;;;;0.00;0.00;;;2.70;99.90;;;;;;5008453;28;20034;-91
2021/01/04 00:19:34;;;;;;;0.00;0.00;;;2.70;99.90;;;;;;5011546;28;20189;-91
2021/01/04 00:22:42;;;;;;;0.00;0.00;;;2.60;99.90;;;;;;5012069;28;20037;-92
2021/01/04 00:25:28;;;;;;;0.00;0.00;;;2.70;99.90;;;;;;5012012;28;20065;-91
2021/01/04 00:28:06;;;;;;;0.00;0.00;;;2.70;99.90;;;;;;5012145;28;20045;-91
2021/01/04 00:30:50;;;;;;;0.00;0.00;;;2.70;99.90;;;;;;5021426;28;20465;-91
2021/01/04 00:33:28;;;;;;;0.00;0.00;;;2.70;99.90;;;;;;5028322;28;20100;-91
2021/01/04 00:35:59;;;;;;;0.00;0.00;;;2.70;99.90;;;;;;5028297;28;20034;-91
2021/01/04 00:38:34;;;;;;;0.00;0.00;;;2.70;99.90;;;;;;5011815;28;20045;-92
2021/01/04 00:41:22;;;;;;;0.00;0.00;;;2.70;99.90;;;;;;5011897;28;20034;-91
2021/01/04 00:44:01;;;;;;;0.00;0.00;;;2.70;99.90;;;;;;5012262;28;20467;-92
2021/01/04 00:46:47;;;;;;;0.22;0.22;;;2.70;99.90;;;;;;5011770;28;20069;-91
2021/01/04 00:49:31;;;;;;;0.00;0.00;;;2.70;99.90;;;;;;5011899;28;20042;-91
2021/01/04 00:52:06;;;;;;;0.38;0.38;;;2.70;99.90;;;;;;5011523;28;20037;-92
2021/01/04 00:54:52;;;;;;;0.00;0.00;;;2.70;99.90;;;;;;5011708;28;20257;-91
2021/01/04 00:57:36;;;;;;;0.08;0.00;;;2.70;99.90;;;;;;5012875;28;20042;-91
2021/01/04 01:00:23;;;;;;;0.00;0.00;;;2.70;99.90;;;;;;5011706;28;20072;-91
2021/01/04 01:03:20;;;;;;;0.00;0.00;;;2.70;99.90;;;;;;5011588;28;20042;-92
2021/01/04 01:06:02;;;;;;;0.00;0.00;;;2.70;99.90;;;;;;5011427;28;20042;-92
2021/01/04 01:08:34;;;;;;;0.00;0.00;;;2.70;99.90;;;;;;5011323;28;20046;-90
2021/01/04 01:11:13;;;;;;;0.00;0.00;;;2.70;99.90;;;;;;5011363;28;20038;-91
2021/01/04 01:13:47;;;;;;;0.00;0.00;;;2.70;99.90;;;;;;5011584;28;20426;-92
2021/01/04 01:16:58;;;;;;;0.00;0.00;;;2.70;99.90;;;;;;5011154;28;20069;-91
2021/01/04 01:19:47;;;;;;;0.00;0.00;;;2.70;99.90;;;;;;5011118;28;20046;-91
2021/01/04 01:22:26;;;;;;;0.00;0.00;;;2.70;99.90;;;;;;5011015;28;20101;-91
2021/01/04 01:24:52;;;;;;;0.00;0.00;;;2.70;99.90;;;;;;5011181;28;20061;-93
2021/01/04 01:27:26;;;;;;;0.00;0.00;;;2.70;99.90;;;;;;4994758;28;20100;-92
2021/01/04 01:30:30;;;;;;;0.00;0.00;;;2.70;99.90;;;;;;5012417;28;20045;-92
2021/01/04 01:33:20;;;;;;;0.00;0.00;;;2.70;99.90;;;;;;5030534;28;20045;-92
2021/01/04 01:35:53;;;;;;;0.00;0.00;;;2.60;99.90;;;;;;5014334;28;20084;-91
2021/01/04 01:38:39;;;;;;;0.00;0.00;;;2.60;99.90;;;;;;5014238;28;20046;-91
2021/01/04 01:41:30;;;;;;;0.00;0.00;;;2.60;99.90;;;;;;5030373;28;20057;-92
2021/01/04 01:44:07;;;;;;;0.57;0.57;;;2.60;99.90;;;;;;5030526;28;20072;-92
2021/01/04 01:46:46;;;;;;;0.00;0.00;;;2.60;99.90;;;;;;5030104;28;20049;-91
2021/01/04 01:49:32;;;;;;;0.00;0.00;;;2.60;99.90;;;;;;5014140;28;20041;-92
2021/01/04 01:52:23;;;;;;;0.00;0.00;;;2.50;99.90;;;;;;5030350;28;20420;-89
2021/01/04 01:55:17;;;;;;;0.00;0.00;;;2.50;99.90;;;;;;5013855;28;20050;-91
2021/01/04 01:58:14;;;;;;;0.00;0.00;;;2.50;99.90;;;;;;5008175;28;20048;-91
2021/01/04 02:00:50;;;;;;;0.00;0.00;;;2.50;99.90;;;;;;5013870;28;20033;-91
2021/01/04 02:03:52;;;;;;;0.00;0.00;;;2.50;99.90;;;;;;5013915;28;20041;-91
2021/01/04 02:06:46;;;;;;;0.00;0.00;;;2.50;99.90;;;;;;5030104;28;20119;-91
2021/01/04 02:09:20;;;;;;;0.20;0.20;;;2.40;99.90;;;;;;5013980;28;20424;-92
2021/01/04 02:12:11;;;;;;;0.28;0.00;;;2.40;99.90;;;;;;5013346;28;20056;-91
2021/01/04 02:14:58;;;;;;;0.00;0.00;;;2.50;99.90;;;;;;5013622;28;20046;-91
2021/01/04 02:17:51;;;;;;;0.00;0.00;;;2.40;99.90;;;;;;5013709;28;20033;-91
2021/01/04 02:20:55;;;;;;;0.00;0.00;;;2.40;99.90;;;;;;5013464;28;20045;-91
2021/01/04 02:23:40;;;;;;;0.00;0.00;;;2.40;99.90;;;;;;5013328;28;20394;-92
2021/01/04 02:26:14;;;;;;;0.00;0.00;;;2.40;99.90;;;;;;5013167;28;20037;-92
2021/01/04 02:28:50;;;;;;;0.00;0.00;;;2.40;99.90;;;;;;5013481;28;20044;-92
2021/01/04 02:31:16;;;;;;;0.00;0.00;;;2.40;99.90;;;;;;5013115;28;20060;-92
2021/01/04 02:33:42;;;;;;;0.00;0.00;;;2.40;99.90;;;;;;5029569;28;20072;-91
2021/01/04 02:36:08;;;;;;;0.00;0.00;;;2.40;99.90;;;;;;5029739;28;20105;-91
2021/01/04 02:38:41;;;;;;;0.00;0.00;;;2.40;99.90;;;;;;5029522;28;20087;-90
2021/01/04 02:41:08;;;;;;;0.00;0.00;;;2.40;99.90;;;;;;5029209;28;20037;-92
2021/01/04 02:43:33;;;;;;;4.20;4.00;;;2.40;99.90;;;;;;5029282;28;20049;-92
2021/01/04 02:46:04;;;;;;;0.00;0.00;;;2.30;99.90;;;;;;5029546;28;20101;-92
2021/01/04 02:48:45;;;;;;;0.00;0.00;;;2.40;99.90;;;;;;5029416;28;20048;-92
2021/01/04 02:51:17;;;;;;;0.00;0.00;;;2.30;99.90;;;;;;5029294;28;20604;-93
2021/01/04 02:53:55;;;;;;;0.22;0.22;;;2.40;99.90;;;;;;5012656;28;20072;-92
2021/01/04 02:56:31;;;;;;;0.00;0.00;;;2.30;99.90;;;;;;5028981;28;20087;-92
2021/01/04 02:59:02;;;;;;;0.00;0.00;;;2.30;99.90;;;;;;5028914;28;20509;-92
2021/01/04 03:01:51;;;;;;;0.00;0.00;;;2.30;99.90;;;;;;5012717;28;20433;-93
2021/01/04 03:04:20;;;;;;;0.00;0.00;;;2.30;99.90;;;;;;5028797;28;20037;-92
2021/01/04 03:07:07;;;;;;;0.00;0.00;;;2.30;99.90;;;;;;5028968;28;20065;-91
2021/01/04 03:09:34;;;;;;;0.00;0.00;;;2.30;99.90;;;;;;5012399;28;20045;-92
2021/01/04 03:12:05;;;;;;;0.00;0.00;;;2.30;99.90;;;;;;5028546;28;20045;-92
2021/01/04 03:14:44;;;;;;;0.00;0.00;;;2.30;99.90;;;;;;5028878;28;20041;-92
2021/01/04 03:17:47;;;;;;;0.00;0.00;;;2.30;99.90;;;;;;5012394;28;20041;-92
2021/01/04 03:20:17;;;;;;;0.00;0.00;;;2.20;99.90;;;;;;5028509;28;20049;-93
2021/01/04 03:22:45;;;;;;;0.00;0.00;;;2.30;99.90;;;;;;5028770;28;20044;-92
2021/01/04 03:25:35;;;;;;;0.00;0.00;;;2.20;99.90;;;;;;5012040;28;20045;-92
2021/01/04 03:28:08;;;;;;;0.00;0.00;;;2.30;99.90;;;;;;5028688;28;20041;-92
2021/01/04 03:30:33;;;;;;;0.00;0.00;;;2.20;99.90;;;;;;5011946;28;20033;-92
2021/01/04 03:32:59;;;;;;;0.00;0.00;;;2.20;99.90;;;;;;5028557;28;20078;-93
2021/01/04 03:35:25;;;;;;;0.00;0.00;;;2.30;99.90;;;;;;5012304;28;20034;-92
2021/01/04 03:37:51;;;;;;;0.00;0.00;;;2.30;99.90;;;;;;5028387;28;20045;-92
2021/01/04 03:40:17;;;;;;;0.00;0.00;;;2.30;99.90;;;;;;5012023;28;20037;-92
2021/01/04 03:42:43;;;;;;;0.00;0.00;;;2.30;99.90;;;;;;5028345;28;20037;-92
2021/01/04 03:45:10;;;;;;;0.00;0.00;;;2.20;99.90;;;;;;5012241;28;20072;-92
2021/01/04 03:47:36;;;;;;;0.00;0.00;;;2.20;99.90;;;;;;5028518;28;20185;-91
2021/01/04 03:50:09;;;;;;;0.00;0.00;;;2.20;99.90;;;;;;5012234;28;20057;-92
2021/01/04 03:52:35;;;;;;;0.00;0.00;;;2.20;99.90;;;;;;5012447;28;20069;-91
2021/01/04 03:55:00;;;;;;;0.00;0.00;;;2.20;99.90;;;;;;5012037;28;20037;-91
2021/01/04 03:57:26;;;;;;;0.00;0.00;;;2.20;99.90;;;;;;5028355;28;20052;-92
2021/01/04 03:59:52;;;;;;;0.00;0.00;;;2.30;99.90;;;;;;5011950;28;20033;-92
2021/01/04 04:02:20;;;;;;;0.00;0.00;;;2.20;99.90;;;;;;5012008;28;20067;-92
2021/01/04 04:04:45;;;;;;;0.00;0.00;;;2.30;99.90;;;;;;5011833;28;20049;-93
2021/01/04 04:07:11;;;;;;;0.00;0.00;;;2.30;99.90;;;;;;5011845;28;20041;-91
2021/01/04 04:09:37;;;;;;;0.00;0.00;;;2.30;99.90;;;;;;5011885;28;20109;-92
2021/01/04 04:12:02;;;;;;;0.00;0.00;;;2.30;99.90;;;;;;5011637;28;20041;-91
2021/01/04 04:14:28;;;;;;;0.00;0.00;;;2.30;99.90;;;;;;5011675;28;20048;-92
2021/01/04 04:16:54;;;;;;;0.00;0.00;;;2.30;99.90;;;;;;5012060;28;20109;-92
2021/01/04 04:19:20;;;;;;;0.00;0.00;;;2.30;99.90;;;;;;5011543;28;20057;-92
2021/01/04 04:21:52;;;;;;;0.00;0.00;;;2.30;99.90;;;;;;5011788;28;20042;-92
2021/01/04 04:24:20;;;;;;;0.00;0.00;;;2.30;99.90;;;;;;5011659;28;20045;-90
2021/01/04 04:26:46;;;;;;;1.55;0.57;;;2.30;99.90;;;;;;5012048;28;20101;-93
2021/01/04 04:29:11;;;;;;;0.00;0.00;;;2.30;99.90;;;;;;5011622;28;20045;-92
2021/01/04 04:31:44;;;;;;;0.00;0.00;;;2.30;99.90;;;;;;5011529;28;20057;-92
2021/01/04 04:34:11;;;;;;;0.00;0.00;;;2.30;99.90;;;;;;5027856;28;20056;-91
2021/01/04 04:36:40;;;;;;;0.00;0.00;;;2.30;99.90;;;;;;5028103;28;20061;-92
2021/01/04 04:39:06;;;;;;;0.00;0.00;;;2.30;99.90;;;;;;5011766;28;20041;-92
2021/01/04 04:41:36;;;;;;;0.00;0.00;;;2.30;99.90;;;;;;5027867;28;20055;-93
2021/01/04 04:44:26;;;;;;;0.00;0.00;;;2.30;99.90;;;;;;5011660;28;20031;-92
2021/01/04 04:47:05;;;;;;;0.00;0.00;;;2.30;99.90;;;;;;5011349;28;20038;-92
2021/01/04 04:50:17;;;;;;;0.00;0.00;;;2.40;99.90;;;;;;5027979;28;20034;-93
2021/01/04 04:53:05;;;;;;;0.00;0.00;;;2.30;99.90;;;;;;5028062;28;20051;-92
2021/01/04 04:55:57;;;;;;;0.00;0.00;;;2.30;99.90;;;;;;5023859;28;20122;-92
2021/01/04 04:58:55;;;;;;;0.00;0.00;;;2.40;99.90;;;;;;5011293;28;20060;-91
2021/01/04 05:01:33;;;;;;;0.00;0.00;;;2.40;99.90;;;;;;5027627;28;20491;-91
2021/01/04 05:04:02;;;;;;;0.00;0.00;;;2.40;99.90;;;;;;5028484;28;20045;-91
2021/01/04 05:06:38;;;;;;;0.00;0.00;;;2.40;99.90;;;;;;5031180;28;20033;-91
2021/01/04 05:09:33;;;;;;;0.00;0.00;;;2.40;99.90;;;;;;5031011;28;20041;-91
2021/01/04 05:12:16;;;;;;;0.00;0.00;;;2.40;99.90;;;;;;4978587;28;20048;-91
2021/01/04 05:14:59;;;;;;;0.00;0.00;;;2.40;99.90;;;;;;5030958;28;20054;-92
2021/01/04 05:17:43;;;;;;;0.00;0.00;;;2.30;99.90;;;;;;5031029;28;20038;-91
2021/01/04 05:20:35;;;;;;;0.00;0.00;;;2.40;99.90;;;;;;5045398;28;20049;-91
2021/01/04 05:23:15;;;;;;;0.00;0.00;;;2.40;99.90;;;;;;5025350;28;20041;-92
2021/01/04 05:26:24;;;;;;;0.00;0.00;;;2.40;99.90;;;;;;5047527;28;20065;-91
2021/01/04 05:29:05;;;;;;;0.00;0.00;;;2.40;99.90;;;;;;5029115;28;20038;-93
2021/01/04 05:32:06;;;;;;;0.00;0.00;;;2.40;99.90;;;;;;5030289;28;20466;-92
2021/01/04 05:34:56;;;;;;;0.00;0.00;;;2.40;99.90;;;;;;5047249;28;20052;-92
2021/01/04 05:37:41;;;;;;;0.00;0.00;;;2.40;99.90;;;;;;5030437;28;20041;-90
2021/01/04 05:40:33;;;;;;;0.00;0.00;;;2.40;99.90;;;;;;5030223;28;20037;-93
2021/01/04 05:43:28;;;;;;;0.00;0.00;;;2.40;99.90;;;;;;5024009;28;20037;-92
2021/01/04 05:46:04;;;;;;;0.00;0.00;;;2.40;99.90;;;;;;5027232;28;20038;-92
2021/01/04 05:48:55;;;;;;;0.00;0.00;;;2.40;99.90;;;;;;5037576;28;20049;-92
2021/01/04 05:51:32;;;;;;;0.00;0.00;;;2.50;99.90;;;;;;5046300;28;20036;-90
2021/01/04 05:54:34;;;;;;;0.00;0.00;;;2.40;99.90;;;;;;5030081;28;20049;-92
2021/01/04 05:57:20;;;;;;;0.00;0.00;;;2.50;99.90;;;;;;4983789;28;20030;-92
2021/01/04 05:59:50;;;;;;;0.00;0.00;;;2.50;99.90;;;;;;4995080;28;20048;-92
2021/01/04 06:02:34;;;;;;;0.00;0.00;;;2.50;99.90;;;;;;4979243;28;20081;-93
2021/01/04 06:05:16;;;;;;;0.00;0.00;;;2.50;99.90;;;;;;4973692;28;20038;-91
2021/01/04 06:07:44;;;;;;;0.00;0.00;;;2.40;99.90;;;;;;4973764;28;20154;-93
2021/01/04 06:10:23;;;;;;;0.00;0.00;;;2.50;99.90;;;;;;4973603;28;20046;-93
2021/01/04 06:12:50;;;;;;;0.00;0.00;;;2.50;99.90;;;;;;4993033;28;20054;-91
2021/01/04 06:15:29;;;;;;;0.00;0.00;;;2.50;99.90;;;;;;4992590;28;20045;-93
2021/01/04 06:18:04;;;;;;;0.00;0.00;;;2.40;99.90;;;;;;4992892;28;20547;-91
2021/01/04 06:20:41;;;;;;;0.00;0.00;;;2.40;99.90;;;;;;4992626;28;20485;-91
2021/01/04 06:23:31;;;;;;;0.00;0.00;;;2.40;99.90;;;;;;4992882;28;20057;-91
2021/01/04 06:26:04;;;;;;;0.00;0.00;;;2.40;99.90;;;;;;4980793;28;20045;-91
2021/01/04 06:28:29;;;;;;;1.65;0.30;;;2.40;99.90;;;;;;4992751;28;20034;-88
2021/01/04 06:31:05;;;;;;;0.00;0.00;;;2.40;99.90;;;;;;5000555;28;20038;-89
2021/01/04 06:33:31;;;;;;;0.00;0.00;;;2.40;99.90;;;;;;5004436;28;20049;-88
2021/01/04 06:36:04;;;;;;;0.00;0.00;;;2.40;99.90;;;;;;5029680;28;20037;-89
2021/01/04 06:38:32;;;;;;;0.00;0.00;;;2.40;99.90;;;;;;5029293;28;20076;-90
2021/01/04 06:41:10;;;;;;;0.00;0.00;;;2.40;99.90;;;;;;5029456;28;20037;-90
2021/01/04 06:43:38;;;;;;;0.00;0.00;;;2.40;99.90;;;;;;5029393;28;20067;-89
2021/01/04 06:46:30;;;;;;;0.00;0.00;;;2.40;99.90;;;;;;5029650;28;20060;-89
2021/01/04 06:49:16;;;;;;;0.00;0.00;;;2.40;99.90;;;;;;5029588;28;20067;-89
2021/01/04 06:52:06;;;;;;;0.00;0.00;;;2.50;99.90;;;;;;5029106;28;20041;-90
2021/01/04 06:54:38;;;;;;;;;;;2.40;99.90;;;;;;5045864;28;20050;-91
2021/01/04 06:57:42;;;;;;;0.00;0.00;;;2.50;99.90;;;;;;5026416;28;19952;-89
2021/01/04 07:00:25;;;;;;;0.00;0.00;;;2.40;99.90;;;;;;5026004;28;20391;-92
2021/01/04 07:03:28;;;;;;;0.00;0.00;;;2.50;99.90;;;;;;5026001;28;20045;-90
2021/01/04 07:06:33;;;;;;;0.00;0.00;;;2.50;99.90;;;;;;5025469;28;20100;-90
2021/01/04 07:09:18;;;;;;;0.00;0.00;;;2.50;99.90;;;;;;5010171;28;20065;-89
2021/01/04 07:11:58;;;;;;;0.00;0.00;;;2.50;99.90;;;;;;5025507;28;20137;-91
2021/01/04 07:14:52;;;;;;;0.00;0.00;;;2.50;99.90;;;;;;5025761;28;20332;-91
2021/01/04 07:17:29;;;;;;;0.00;0.00;;;2.50;99.90;;;;;;5025313;28;20030;-90
2021/01/04 07:20:13;;;;;;;0.00;0.00;;;2.50;99.90;;;;;;5025469;28;20049;-88
2021/01/04 07:22:48;;;;;;;0.00;0.00;;;2.50;99.90;;;;;;5009220;28;20041;-90
2021/01/04 07:25:42;;;;;;;0.00;0.00;;;2.50;99.90;;;;;;5025309;28;20046;-89
2021/01/04 07:28:33;;;;;;;0.00;0.00;;;2.50;99.90;;;;;;5024695;28;20042;-89
2021/01/04 07:31:11;;;;;;;0.00;0.00;;;2.50;99.90;;;;;;5033397;28;20052;-89
2021/01/04 07:33:46;;;;;;;0.00;0.00;;;2.50;99.90;;;;;;5008608;28;20050;-89
2021/01/04 07:36:22;;;;;;;0.00;0.00;;;2.50;99.90;;;;;;5008823;28;20136;-88
2021/01/04 07:38:57;;;;;;;0.03;0.00;;;2.50;99.90;;;;;;5042081;28;20482;-88
2021/01/04 07:41:37;;;;;;;0.00;0.00;;;2.50;99.90;;;;;;5024906;28;20048;-88
2021/01/04 07:44:39;;;;;;;0.00;0.00;;;2.50;99.90;;;;;;5008525;28;20038;-88
2021/01/04 07:47:27;;;;;;;0.00;0.00;;;2.50;99.90;;;;;;5008571;28;20060;-88
2021/01/04 07:50:13;;;;;;;0.00;0.00;;;2.50;99.90;;;;;;5008670;28;20156;-87
2021/01/04 07:52:59;;;;;;;0.00;0.00;;;2.50;99.90;;;;;;5025114;28;20046;-88
2021/01/04 07:55:46;;;;;;;0.00;0.00;;;2.50;99.90;;;;;;5014902;28;20048;-88
2021/01/04 07:58:27;;;;;;;0.00;0.00;;;2.50;99.90;;;;;;5044878;28;20096;-88
2021/01/04 08:01:11;;;;;;;0.00;0.00;;;2.50;99.90;;;;;;5028159;28;20045;-88
2021/01/04 08:03:42;;;;;;;1.40;1.40;;;2.50;99.90;;;;;;5044517;28;20558;-89
2021/01/04 08:06:27;;;;;;;0.32;0.00;;;2.50;99.90;;;;;;5044727;28;20204;-89
2021/01/04 08:09:07;;;;;;;0.00;0.00;;;2.50;99.90;;;;;;5044940;28;20042;-89
2021/01/04 08:11:55;;;;;;;0.00;0.00;;;2.50;99.90;;;;;;5044413;28;20037;-88
2021/01/04 08:14:42;;;;;;;0.00;0.00;;;2.50;99.90;;;;;;5044504;28;20055;-90
2021/01/04 08:17:12;;;;;;;0.00;0.00;;;2.50;99.90;;;;;;5044562;28;20128;-88
2021/01/04 08:19:40;;;;;;;0.00;0.00;;;2.50;99.90;;;;;;5043884;28;20271;-88
2021/01/04 08:22:38;;;;;;;0.00;0.00;;;2.50;99.90;;;;;;5044310;28;20033;-87
2021/01/04 08:25:12;;;;;;;0.00;0.00;;;2.50;99.90;;;;;;5025266;28;20057;-89
2021/01/04 08:28:12;;;;;;;0.00;0.00;;;2.60;99.90;;;;;;5027560;28;20041;-87
2021/01/04 08:30:44;;;;;;;0.98;0.30;;;2.60;99.90;;;;;;5043724;28;20030;-88
2021/01/04 08:33:33;;;;;;;0.00;0.00;;;2.60;99.90;;;;;;5027230;28;20052;-89
2021/01/04 08:35:59;;;;;;;0.00;0.00;;;2.60;99.90;;;;;;5027459;28;20038;-88
2021/01/04 08:38:27;;;;;;;0.00;0.00;;;2.60;99.90;;;;;;5027396;28;20068;-88
2021/01/04 08:41:14;;;;;;;0.00;0.00;;;2.60;99.90;;;;;;5030588;28;20061;-88
2021/01/04 08:43:45;;;;;;;0.00;0.00;;;2.60;99.90;;;;;;5047525;28;20045;-88
2021/01/04 08:46:29;;;;;;;0.00;0.00;;;2.60;99.90;;;;;;5031349;28;20463;-88
2021/01/04 08:48:58;;;;;;;0.00;0.00;;;2.60;99.90;;;;;;5030857;28;20424;-91
2021/01/04 08:51:39;;;;;;;0.00;0.00;;;2.60;99.90;;;;;;5000221;28;20100;-90
2021/01/04 08:54:32;;;;;;;0.00;0.00;;;2.60;99.90;;;;;;5048042;28;20489;-90
2021/01/04 08:57:03;;;;;;;0.00;0.00;;;2.70;99.90;;;;;;5010445;28;20038;-91
2021/01/04 08:59:35;;;;;;;0.00;0.00;;;2.70;99.90;;;;;;4990270;28;20037;-90
2021/01/04 09:02:14;;;;;;;0.00;0.00;;;2.70;99.90;;;;;;4989210;28;20049;-91
2021/01/04 09:04:40;;;;;;;0.00;0.00;;;2.70;99.90;;;;;;4994889;28;20038;-92
2021/01/04 09:07:11;;;;;;;0.00;0.00;;;2.70;99.90;;;;;;4991292;28;20129;-92
2021/01/04 09:09:45;;;;;;;0.00;0.00;;;2.70;99.90;;;;;;4990759;28;20486;-90
2021/01/04 09:12:19;;;;;;;0.00;0.00;;;2.70;99.90;;;;;;4995304;28;20608;-91
2021/01/04 09:14:44;;;;;;;0.00;0.00;;;2.70;99.90;;;;;;5001069;28;20057;-88
2021/01/04 09:17:20;;;;;;;0.00;0.00;;;2.70;99.90;;;;;;4991796;28;20157;-90
2021/01/04 09:19:50;;;;;;;0.00;0.00;;;2.60;99.90;;;;;;4986755;28;20085;-89
2021/01/04 09:22:22;;;;;;;0.00;0.00;;;2.60;99.90;;;;;;4999320;28;20038;-89
2021/01/04 09:24:49;;;;;;;0.10;0.10;;;2.60;99.90;;;;;;4991742;28;20048;-89
2021/01/04 09:27:25;;;;;;;0.00;0.00;;;2.60;99.90;;;;;;4991709;28;20097;-90
2021/01/04 09:29:57;;;;;;;0.00;0.00;;;2.70;99.90;;;;;;4989932;28;20049;-86
2021/01/04 09:32:35;;;;;;;0.00;0.00;;;2.70;99.90;;;;;;5017185;28;20056;-86
2021/01/04 09:35:03;;;;;;;0.00;0.00;;;2.70;99.90;;;;;;5025563;28;20048;-87
2021/01/04 09:37:29;;;;;;;0.00;0.00;;;2.70;99.90;;;;;;5027159;28;20037;-87
2021/01/04 09:40:02;;;;;;;0.00;0.00;;;2.70;99.90;;;;;;5042617;28;20131;-89
2021/01/04 09:42:29;;;;;;;0.00;0.00;;;2.70;99.90;;;;;;5028396;28;20048;-88
2021/01/04 09:45:06;;;;;;;0.00;0.00;;;2.70;99.90;;;;;;5063541;28;20481;-88
2021/01/04 09:47:36;;;;;;;0.00;0.00;;;2.70;99.90;;;;;;5041519;28;20041;-88
2021/01/04 09:50:10;;;;;;;0.00;0.00;;;2.80;99.90;;;;;;5018528;28;20493;-88
2021/01/04 09:52:55;;;;;;;0.00;0.00;;;2.80;99.90;;;;;;5043925;28;20065;-88
2021/01/04 09:55:30;;;;;;;0.00;0.00;;;2.80;99.90;;;;;;5036185;28;20045;-88
2021/01/04 09:57:59;;;;;;;0.15;0.15;;;2.80;99.90;;;;;;5025606;28;20038;-88
2021/01/04 10:00:29;;;;;;;0.00;0.00;;;2.90;99.90;;;;;;5029034;28;20105;-87
2021/01/04 10:03:04;;;;;;;0.00;0.00;;;2.90;99.90;;;;;;5033712;28;20133;-89
2021/01/04 10:05:49;;;;;;;0.00;0.00;;;2.90;99.90;;;;;;5037537;28;20117;-88
2021/01/04 10:08:20;;;;;;;0.00;0.00;;;3.00;99.90;;;;;;5036507;28;20046;-88
2021/01/04 10:10:57;;;;;;;;;;;3.00;99.90;;;;;;5030816;28;20038;-89
2021/01/04 10:13:23;;;;;;;0.00;0.00;;;3.00;99.90;;;;;;5041992;28;19924;-89
2021/01/04 10:15:51;;;;;;;0.00;0.00;;;3.00;99.90;;;;;;5037175;28;20038;-88
2021/01/04 10:18:33;;;;;;;0.00;0.00;;;3.10;99.90;;;;;;5023171;28;20065;-90
2021/01/04 10:20:59;;;;;;;0.00;0.00;;;3.10;99.90;;;;;;5001523;28;20077;-88
2021/01/04 10:23:34;;;;;;;0.00;0.00;;;3.10;99.90;;;;;;4992959;28;20053;-89
2021/01/04 10:26:01;;;;;;;0.00;0.00;;;3.10;99.90;;;;;;4989281;28;20038;-88
2021/01/04 10:28:32;;;;;;;0.00;0.00;;;3.10;99.90;;;;;;4991484;28;20053;-89
2021/01/04 10:31:25;;;;;;;0.00;0.00;;;3.20;99.90;;;;;;5018187;28;20038;-89
2021/01/04 10:34:18;;;;;;;0.00;0.00;;;3.20;99.90;;;;;;4993485;28;20061;-89
2021/01/04 10:36:55;;;;;;;0.00;0.00;;;3.20;99.90;;;;;;5010695;28;20034;-89
2021/01/04 10:39:28;;;;;;;0.00;0.00;;;3.20;99.90;;;;;;4995770;28;20116;-90
2021/01/04 10:42:07;;;;;;;0.00;0.00;;;3.20;99.90;;;;;;5002842;28;20050;-89
2021/01/04 10:44:34;;;;;;;0.00;0.00;;;3.20;99.90;;;;;;5021094;28;20093;-89
2021/01/04 10:47:17;;;;;;;0.00;0.00;;;3.20;99.90;;;;;;5004382;28;20068;-89
2021/01/04 10:49:43;;;;;;;0.00;0.00;;;3.20;99.90;;;;;;4984541;28;20422;-88
2021/01/04 10:52:20;;;;;;;0.00;0.00;;;3.20;99.90;;;;;;4996020;28;20039;-88
2021/01/04 10:54:46;;;;;;;0.00;0.00;;;3.30;99.90;;;;;;4992922;28;20050;-89
2021/01/04 10:57:12;;;;;;;0.00;0.00;;;3.20;99.90;;;;;;4988621;28;20049;-89
2021/01/04 10:59:45;;;;;;;0.00;0.00;;;3.30;99.90;;;;;;4990973;28;20115;-88
2021/01/04 11:02:11;;;;;;;0.00;0.00;;;3.20;99.90;;;;;;4986154;28;20039;-88
2021/01/04 11:04:38;;;;;;;0.00;0.00;;;3.30;99.90;;;;;;5002177;28;20069;-90
2021/01/04 11:07:13;;;;;;;0.00;0.00;;;3.30;99.90;;;;;;4989990;28;20037;-88
2021/01/04 11:09:41;;;;;;;0.00;0.00;;;3.20;99.90;;;;;;5010545;28;20888;-88
2021/01/04 11:12:17;;;;;;;0.00;0.00;;;3.30;99.90;;;;;;5002092;28;20089;-90
2021/01/04 11:14:59;;;;;;;0.00;0.00;;;3.30;99.90;;;;;;5000187;28;20438;-89
2021/01/04 11:17:29;;;;;;;0.00;0.00;;;3.20;99.90;;;;;;4993028;28;20042;-89
2021/01/04 11:20:08;;;;;;;0.00;0.00;;;3.20;99.90;;;;;;5019696;28;20152;-89
2021/01/04 11:22:33;;;;;;;0.00;0.00;;;3.30;99.90;;;;;;5018193;28;20041;-88
2021/01/04 11:25:00;;;;;;;0.00;0.00;;;3.20;99.90;;;;;;5010624;28;20041;-88
2021/01/04 11:27:26;;;;;;;0.00;0.00;;;3.20;99.90;;;;;;5013276;28;20045;-90
2021/01/04 11:29:52;;;;;;;0.00;0.00;;;3.20;99.90;;;;;;5023303;28;20038;-89
2021/01/04 11:32:19;;;;;;;0.00;0.00;;;3.20;99.90;;;;;;5022178;28;20452;-89
2021/01/04 11:34:47;;;;;;;0.00;0.00;;;3.20;99.90;;;;;;5028049;28;20119;-87
2021/01/04 11:37:15;;;;;;;1.05;0.10;;;3.20;99.90;;;;;;5024259;28;20178;-88
2021/01/04 11:39:41;;;;;;;0.00;0.00;;;3.20;99.90;;;;;;5014222;28;20034;-88
2021/01/04 11:42:07;;;;;;;0.00;0.00;;;3.20;99.90;;;;;;5025556;28;20049;-88
2021/01/04 11:44:33;;;;;;;0.20;0.17;;;3.30;99.90;;;;;;5011956;28;20064;-88
2021/01/04 11:47:00;;;;;;;0.00;0.00;;;3.30;99.90;;;;;;5011564;28;20513;-88
2021/01/04 11:49:25;;;;;;;0.00;0.00;;;3.30;99.90;;;;;;5018098;28;20044;-88
2021/01/04 11:51:52;;;;;;;0.00;0.00;;;3.30;99.90;;;;;;5017168;28;20049;-88
2021/01/04 11:54:18;;;;;;;2.17;1.45;;;3.30;99.90;;;;;;5026345;28;20041;-87
2021/01/04 11:56:44;;;;;;;0.00;0.00;;;3.30;99.90;;;;;;5019905;28;20038;-88
2021/01/04 11:59:10;;;;;;;0.00;0.00;;;3.30;99.90;;;;;;5012266;28;20056;-88
2021/01/04 12:01:36;;;;;;;0.00;0.00;;;3.30;99.90;;;;;;5021051;28;20049;-88
2021/01/04 12:04:07;;;;;;;0.00;0.00;;;3.30;99.90;;;;;;5010321;28;20057;-88
2021/01/04 12:06:33;;;;;;;0.00;0.00;;;3.40;99.90;;;;;;5015778;28;20049;-87
2021/01/04 12:08:58;;;;;;;0.00;0.00;;;3.40;99.90;;;;;;5029628;28;20159;-88
2021/01/04 12:11:29;;;;;;;0.00;0.00;;;3.40;99.90;;;;;;5053100;28;20057;-87
2021/01/04 12:13:55;;;;;;;0.00;0.00;;;3.40;99.90;;;;;;5028744;28;20073;-87
2021/01/04 12:16:20;;;;;;;0.03;0.00;;;3.40;99.90;;;;;;5024142;28;20037;-88
2021/01/04 12:18:46;;;;;;;0.00;0.00;;;3.40;99.90;;;;;;5027264;28;20054;-88
2021/01/04 12:21:13;;;;;;;0.20;0.20;;;3.30;99.90;;;;;;5016282;28;20448;-88
2021/01/04 12:23:40;;;;;;;0.00;0.00;;;3.30;99.90;;;;;;5010717;28;20034;-88
2021/01/04 12:26:09;;;;;;;0.00;0.00;;;3.30;99.90;;;;;;4998717;28;20050;-87
2021/01/04 12:28:35;;;;;;;0.00;0.00;;;3.30;99.90;;;;;;5014847;28;20159;-87
2021/01/04 12:31:01;;;;;;;0.00;0.00;;;3.30;99.90;;;;;;4998267;28;20100;-87
2021/01/04 12:33:26;;;;;;;0.00;0.00;;;3.30;99.90;;;;;;4998120;28;20049;-87
2021/01/04 12:35:52;;;;;;;0.00;0.00;;;3.30;99.90;;;;;;5015194;28;20083;-88
2021/01/04 12:38:17;;;;;;;1.00;1.00;;;3.30;99.90;;;;;;4998465;28;20060;-88
2021/01/04 12:40:43;;;;;;;0.00;0.00;;;3.20;99.90;;;;;;4994503;28;20042;-88
2021/01/04 12:43:09;;;;;;;0.00;0.00;;;3.30;99.90;;;;;;5012049;28;20081;-88
2021/01/04 12:45:35;;;;;;;0.00;0.00;;;3.20;99.90;;;;;;5011020;28;20117;-88
2021/01/04 12:48:01;;;;;;;0.00;0.00;;;3.20;99.90;;;;;;5010713;28;20034;-87
2021/01/04 12:50:27;;;;;;;0.03;0.03;;;3.20;99.90;;;;;;4984994;28;20081;-89
2021/01/04 12:52:52;;;;;;;0.10;0.10;;;3.20;99.90;;;;;;4993995;28;20050;-89
2021/01/04 12:55:19;;;;;;;0.00;0.00;;;3.20;99.90;;;;;;5026417;23;20060;-88
2021/01/04 12:57:47;;;;;;;0.00;0.00;;;3.20;99.90;;;;;;5048914;28;20040;-88
2021/01/04 13:00:20;;;;;;;0.00;0.00;;;3.20;99.90;;;;;;5049074;28;20045;-88
2021/01/04 13:02:46;;;;;;;0.00;0.00;;;3.20;99.90;;;;;;5032160;28;20047;-88
2021/01/04 13:05:12;;;;;;;0.00;0.00;;;3.20;99.90;;;;;;5048058;28;20124;-88
2021/01/04 13:07:38;;;;;;;0.00;0.00;;;3.20;99.90;;;;;;5047308;28;20041;-89
2021/01/04 13:10:08;;;;;;;0.00;0.00;;;3.20;99.90;;;;;;5029734;28;20039;-88
2021/01/04 13:12:33;;;;;;;0.00;0.00;;;3.20;99.90;;;;;;5030097;28;20208;-89
2021/01/04 13:14:59;;;;;;;0.00;0.00;;;3.20;99.90;;;;;;5026915;28;20061;-89
2021/01/04 13:17:25;;;;;;;0.00;0.00;;;3.20;99.90;;;;;;5050265;28;20052;-88
2021/01/04 13:19:50;;;;;;;0.00;0.00;;;3.20;99.90;;;;;;5032772;28;20067;-89
2021/01/04 13:22:16;;;;;;;0.00;0.00;;;3.20;99.90;;;;;;5036428;28;20201;-88
2021/01/04 13:24:41;;;;;;;0.00;0.00;;;3.20;99.90;;;;;;5030367;28;20041;-88
2021/01/04 13:27:07;;;;;;;0.00;0.00;;;3.20;99.90;;;;;;5032512;28;20588;-88
2021/01/04 13:29:33;;;;;;;0.00;0.00;;;3.10;99.90;;;;;;5028830;28;20029;-87
2021/01/04 13:32:04;;;;;;;1.35;0.65;;;3.10;99.90;;;;;;5032641;28;20540;-87
2021/01/04 13:34:29;;;;;;;0.00;0.00;;;3.10;99.90;;;;;;5030409;28;20084;-87
2021/01/04 13:36:57;;;;;;;0.00;0.00;;;3.10;99.90;;;;;;5031035;28;20093;-88
2021/01/04 13:39:26;;;;;;;0.00;0.00;;;3.10;99.90;;;;;;5030294;28;20037;-88
2021/01/04 13:41:57;;;;;;;0.00;0.00;;;3.10;99.90;;;;;;5026640;28;20048;-88
2021/01/04 13:44:24;;;;;;;0.00;0.00;;;3.10;99.90;;;;;;5044226;28;20041;-87